Observations for AUCKLAND INTL A, New Zealand (NZAA)

NZAA 202230Z AUTO 18006KT 9999 FEW035/// 20/14 Q1018 NOSIG  
NZAA 202200Z AUTO 19004KT 160V240 9999 SCT037/// 20/15 Q1017 NOSIG  
NZAA 202130Z AUTO 34003KT 9999 BKN032/// 20/12 Q1017 NOSIG  
NZAA 202100Z AUTO 35006KT 260V170 9999 SCT028/// BKN034/// 20/13 Q1017 NOSIG
NZAA 202030Z AUTO 02005KT 350V060 9999 FEW022/// SCT027/// 19/14 Q1018 NOSIG
NZAA 202000Z AUTO 02006KT 340V060 9999 FEW017/// BKN025/// 19/14 Q1017 NOSIG
NZAA 201930Z AUTO 05003KT 9999 NCD 18/15 Q1017 NOSIG
NZAA 201900Z AUTO 04003KT 9999 NCD 16/14 Q1017 NOSIG
NZAA 201830Z AUTO 06003KT 9999 SCT013/// 15/13 Q1017 NOSIG  
NZAA 201800Z AUTO 06002KT 9999 FEW060/// 14/13 Q1017 NOSIG  
NZAA 201730Z AUTO 03002KT 9999 BKN065/// 13/13 Q1017 NOSIG  
NZAA 201700Z AUTO 03003KT 9999 FEW070/// 13/12 Q1017 NOSIG  
NZAA 201630Z AUTO 07003KT 9999 NCD 13/13 Q1016 NOSIG
NZAA 201600Z AUTO 05001KT 9999 FEW070/// 14/13 Q1016 NOSIG  
NZAA 201530Z AUTO 06002KT 9999 BKN060/// 14/13 Q1016 NOSIG  
NZAA 201500Z AUTO 10002KT 9999 BKN075/// 15/13 Q1016 NOSIG  
NZAA 201430Z AUTO 00000KT 9999 BKN075/// 15/13 Q1016 NOSIG  
NZAA 201400Z AUTO 01001KT 9999 SCT075/// 15/13 Q1016 NOSIG  
NZAA 201330Z AUTO 01002KT 9999 FEW070/// 15/13 Q1016 NOSIG  
NZAA 201300Z AUTO 03001KT 9999 NCD 15/13 Q1016 NOSIG
NZAA 201230Z AUTO 01004KT 9999 NCD 15/12 Q1016 NOSIG
NZAA 201200Z AUTO 01004KT 9999 FEW085/// 15/12 Q1016 NOSIG  
NZAA 201130Z AUTO 01005KT 300V020 9999 BKN080/// 16/12 Q1016 NOSIG  
NZAA 201100Z AUTO 02004KT 340V070 9999 FEW060/// BKN080/// 16/12 Q1016 NOSIG
NZAA 201030Z AUTO 01005KT 340V050 9999 BKN060/// 16/12 Q1016 NOSIG  
NZAA 201000Z AUTO 36004KT 310V030 9999 BKN060/// OVC075/// 17/12 Q1016 NOSIG
NZAA 200930Z AUTO 35004KT 330V040 9999 BKN065/// OVC090/// 17/12 Q1016 NOSIG
NZAA 200900Z AUTO 35005KT 9999 FEW075/// BKN090/// 17/12 Q1016 NOSIG
NZAA 200830Z AUTO 01001KT 9999 FEW070/// OVC090/// 18/12 Q1015 NOSIG
NZAA 200800Z AUTO 24003KT 9999 BKN065/// OVC100/// 17/11 Q1015 NOSIG
NZAA 200730Z AUTO 25005KT 9999 SCT060/// BKN100/// 17/12 Q1014 NOSIG
NZAA 200700Z AUTO 24007KT 9999 OVC055/// 18/13 Q1014 NOSIG  
NZAA 200630Z AUTO 23007KT 9999 OVC055/// 19/13 Q1014 NOSIG  
NZAA 200600Z AUTO 24007KT 9999 BKN050/// 19/13 Q1013 NOSIG  
NZAA 200530Z AUTO 23008KT 9999 OVC049/// 19/13 Q1013 NOSIG  
NZAA 200500Z AUTO 22010KT 9999 BKN049/// BKN080/// 20/14 Q1013 NOSIG
NZAA 200430Z AUTO 24010KT 9999 FEW060/// BKN085/// 20/14 Q1013 NOSIG
NZAA 200400Z AUTO 23012KT 9999 SCT050/// BKN060/// 21/14 Q1012 NOSIG
NZAA 200330Z AUTO 24010KT 200V260 9999 BKN065/// 22/14 Q1012 NOSIG  
NZAA 200300Z AUTO 21005KT 180V240 9999 FEW050/// 23/13 Q1012 NOSIG  
NZAA 200230Z AUTO 21006KT 9999 NCD 22/12 Q1012 NOSIG
NZAA 200200Z AUTO 19006KT 140V220 9999 SCT055/// 22/14 Q1012 BECMG 24010KT  
NZAA 200130Z AUTO 18007KT 150V210 9999 SCT050/// 23/12 Q1013 BECMG 24010KT  
NZAA 200100Z AUTO 18007KT 150V210 9999 FEW050/// 23/14 Q1013 BECMG 24010KT  
NZAA 200030Z AUTO 19006KT 120V240 9999 NCD 22/12 Q1013 NOSIG
NZAA 200000Z AUTO 18007KT 140V220 9999 NCD 21/13 Q1013 NOSIG
NZAA 192330Z AUTO 17007KT 140V210 9999 NCD 21/13 Q1013 NOSIG
NZAA 192300Z AUTO 15008KT 9999 BKN080/// 21/11 Q1013 NOSIG  
NZAA 192230Z AUTO 16007KT 120V200 9999 OVC080/// 20/12 Q1013 NOSIG  
NZAA 192200Z AUTO 14009KT 9999 BKN075/// 20/12 Q1013 NOSIG